FW8060 Weather Reports


Display with metric or nautical units.
time (UTC)temp
F
wind
direction
speed
MPH
gust
MPH
rain 1hr
in
rain 24hr
in
rain mn
in
humidity
%
barometer
mb
20240224030828 39 217 4.0 8.0 0.02 0.27 0.02 93 993.3
20240224025827 39 184 4.0 9.0 0.02 0.27 0.02 93 993.3
20240224024831 39 169 4.0 8.0 0.02 0.27 0.02 93 993.4
20240224023835 39 243 4.0 8.0 0.02 0.27 0.02 93 993.4
20240224022824 40 185 6.0 11.0 0.01 0.26 0.01 93 993.3
20240224021827 40 251 7.0 14.0 0.01 0.26 0.01 94 993.3
20240224020826 40 170 6.0 16.0 0.00 0.25 0.00 94 993.4
20240224015826 39 181 5.0 10.0 0.00 0.25 0.00 94 993.4
20240224014823 39 233 5.0 10.0 0.00 0.25 0.00 94 993.4
20240224013826 39 201 4.0 10.0 0.00 0.25 0.00 94 993.3
20240224012823 39 191 3.0 8.0 0.00 0.25 0.00 94 993.3
20240224011821 39 214 3.0 7.0 0.00 0.25 0.00 94 993.1
20240224010824 39 158 2.0 7.0 0.00 0.25 0.00 94 992.9
20240224005822 39 194 3.0 9.0 0.00 0.25 0.00 94 992.9
20240224004822 39 191 2.0 6.0 0.00 0.25 0.00 94 992.8
20240224003815 38 208 3.0 7.0 0.00 0.25 0.00 94 992.8
20240224002828 38 163 3.0 7.0 0.00 0.25 0.00 94 992.8
20240224001820 38 205 2.0 6.0 0.00 0.25 0.00 94 992.7
20240224000815 38 197 2.0 6.0 0.00 0.25 0.00 93 992.5
20240223235816 38 205 2.0 7.0 0.00 0.25 0.00 93 992.5
20240223234819 38 152 2.0 7.0 0.00 0.25 0.00 94 992.7
20240223233815 38 167 3.0 7.0 0.00 0.25 0.00 93 992.5
20240223233317 39 151 3.0 7.0 0.00 0.25 0.00 93 992.4
20240223231810 39 202 2.0 7.0 0.00 0.25 0.00 93 992.3
20240223230808 39 186 2.0 6.0 0.00 0.25 0.00 93 992.3
20240223230356 39 213 3.0 10.0 0.00 0.25 0.25 93 992.4
20240223225358 39 191 3.0 8.0 0.00 0.25 0.25 94 992.4
20240223223808 39 168 3.0 7.0 0.00 0.25 0.25 94 992.4
20240223222812 39 204 3.0 7.0 0.00 0.25 0.25 94 992.4
20240223222258 39 194 3.0 8.0 0.00 0.25 0.25 93 992.3
20240223220809 39 158 3.0 8.0 0.00 0.25 0.25 93 992.1
20240223215807 39 225 2.0 7.0 0.00 0.25 0.25 93 992.1
20240223214807 39 175 4.0 8.0 0.00 0.25 0.25 94 992.0
20240223213811 39 159 3.0 9.0 0.00 0.25 0.25 94 992.1
20240223213323 39 137 3.0 8.0 0.00 0.25 0.25 94 992.0
20240223211805 39 207 3.0 8.0 0.00 0.25 0.25 94 992.0
20240223211311 39 161 3.0 7.0 0.00 0.25 0.25 94 992.0
20240223205805 39 132 3.0 8.0 0.00 0.27 0.25 94 992.0
20240223204807 39 175 2.0 8.0 0.00 0.29 0.25 94 991.9
20240223204342 39 153 3.0 7.0 0.00 0.31 0.25 94 991.9
20240223202811 39 168 3.0 8.0 0.00 0.31 0.25 93 991.9
20240223201807 40 144 3.0 8.0 0.00 0.31 0.25 94 992.0
20240223201325 40 155 4.0 11.0 0.00 0.31 0.25 94 991.8
20240223195807 40 163 3.0 8.0 0.00 0.32 0.25 94 991.7
20240223194804 40 162 3.0 8.0 0.00 0.32 0.25 94 991.7
20240223193804 40 162 3.0 9.0 0.00 0.34 0.25 94 991.6
20240223192810 40 139 3.0 9.0 0.00 0.34 0.25 94 991.5
20240223191804 40 153 3.0 7.0 0.00 0.34 0.25 94 991.4
20240223191330 41 166 3.0 7.0 0.00 0.34 0.25 93 991.3
20240223190353 41 173 3.0 8.0 0.00 0.34 0.25 93 991.1
20240223185431 41 164 3.0 7.0 0.01 0.35 0.25 94 991.1
20240223183811 41 133 3.0 10.0 0.01 0.35 0.25 94 991.1
20240223182810 40 175 3.0 6.0 0.01 0.35 0.25 94 991.2
20240223181802 40 170 3.0 9.0 0.03 0.35 0.25 94 991.2
20240223180806 40 119 4.0 8.0 0.05 0.35 0.25 94 991.3
20240223175804 40 153 4.0 7.0 0.06 0.35 0.25 94 991.1
20240223174805 40 188 2.0 7.0 0.05 0.34 0.24 94 991.0
20240223173805 41 197 3.0 7.0 0.05 0.34 0.24 94 990.8
20240223172805 41 175 5.0 16.0 0.06 0.34 0.24 94 990.8
20240223171805 41 201 6.0 16.0 0.06 0.31 0.22 94 991.0
20240223170802 41 255 4.0 11.0 0.13 0.30 0.20 93 990.9
20240223165804 41 215 3.0 7.0 0.12 0.29 0.20 93 990.5
20240223164813 41 193 3.0 8.0 0.13 0.29 0.20 93 990.4
20240223163807 40 254 4.0 9.0 0.13 0.29 0.20 92 990.4
20240223162805 40 268 7.0 15.0 0.12 0.28 0.19 91 990.5
20240223161806 41 265 10.0 29.0 0.09 0.25 0.16 87 990.7
20240223160809 45 211 4.0 12.0 0.04 0.17 0.08 86 990.2
20240223155805 45 180 5.0 11.0 0.04 0.18 0.08 87 990.0
20240223154805 45 198 5.0 14.0 0.03 0.17 0.07 88 990.1
20240223154339 45 284 4.0 15.0 0.03 0.18 0.07 88 990.2
20240223152804 45 195 4.0 7.0 0.03 0.18 0.07 89 989.9
20240223151803 44 171 5.0 11.0 0.03 0.18 0.07 90 989.9
20240223151319 44 215 6.0 12.0 0.01 0.15 0.04 87 990.0
20240223145802 45 202 5.0 10.0 0.02 0.15 0.04 86 990.0
20240223144802 45 211 7.0 15.0 0.02 0.15 0.04 86 990.2
20240223143801 45 171 9.0 19.0 0.02 0.15 0.04 85 990.0
20240223142800 45 211 9.0 20.0 0.02 0.15 0.04 88 990.0
20240223141802 44 252 8.0 21.0 0.02 0.15 0.04 88 990.2
20240223140757 45 246 8.0 19.0 0.02 0.14 0.03 85 990.2
20240223135758 47 231 8.0 19.0 0.01 0.13 0.02 77 990.1
20240223134759 48 237 7.0 17.0 0.01 0.13 0.02 78 990.0
20240223133800 49 205 6.0 16.0 0.01 0.13 0.02 80 990.0
20240223132757 47 181 6.0 17.0 0.01 0.14 0.02 83 990.1
20240223131752 47 190 6.0 22.0 0.01 0.14 0.02 83 990.2
20240223130755 47 177 8.0 21.0 0.00 0.13 0.01 79 990.2
20240223125759 48 114 8.0 20.0 0.00 0.13 0.01 78 990.1
20240223124805 47 229 9.0 18.0 0.00 0.13 0.01 80 990.3
20240223123758 47 254 7.0 15.0 0.00 0.13 0.01 84 990.3
20240223122752 45 200 8.0 16.0 0.00 0.13 0.01 84 990.5
20240223121754 45 214 7.0 14.0 0.00 0.13 0.01 84 990.6
20240223120749 44 240 9.0 21.0 0.00 0.13 0.01 84 990.7
20240223115748 44 163 9.0 21.0 0.00 0.13 0.01 84 990.7
20240223114749 44 186 10.0 19.0 0.00 0.13 0.01 83 990.7
20240223113749 44 236 12.0 22.0 0.00 0.13 0.01 83 990.6
20240223113306 44 205 10.0 21.0 0.00 0.13 0.01 84 990.6
20240223111751 44 225 10.0 20.0 0.00 0.13 0.01 84 990.5
20240223110753 44 207 10.0 23.0 0.00 0.13 0.01 83 990.6
20240223105748 44 223 12.0 23.0 0.00 0.13 0.01 83 990.7
20240223104750 44 212 12.0 26.0 0.00 0.13 0.01 82 990.5
20240223103751 44 184 11.0 25.0 0.00 0.13 0.01 84 990.2
20240223102751 44 207 8.0 20.0 0.00 0.13 0.01 86 990.1
20240223101749 44 215 9.0 22.0 0.00 0.13 0.01 86 989.9
20240223100758 44 240 10.0 27.0 0.00 0.13 0.01 86 989.9
20240223095755 43 200 10.0 21.0 0.00 0.13 0.01 87 989.8
20240223095259 43 212 9.0 23.0 0.00 0.13 0.01 87 989.5
20240223094256 43 232 10.0 22.0 0.00 0.13 0.01 87 989.4
20240223092753 43 209 11.0 21.0 0.00 0.13 0.01 87 989.3
20240223091753 43 161 10.0 22.0 0.00 0.13 0.01 88 989.3
20240223091544 42 134 12.0 31.0 0.00 0.13 0.01 88 989.1
20240223091417 42 217 9.0 19.0 0.00 0.13 0.01 88 989.3
20240223085800 42 183 9.0 18.0 0.00 0.13 0.01 88 989.2
20240223084254 42 217 11.0 23.0 0.00 0.13 0.01 88 989.0
20240223082752 42 179 9.0 26.0 0.00 0.13 0.01 88 989.0
20240223081753 42 148 11.0 23.0 0.00 0.13 0.01 88 989.1
20240223081359 42 244 9.0 20.0 0.01 0.13 0.01 87 988.9
20240223080755 42 209 10.0 23.0 0.01 0.13 0.01 88 989.1
20240223074748 42 215 9.0 21.0 0.01 0.13 0.01 88 988.9
20240223074252 42 178 10.0 24.0 0.01 0.13 0.01 88 988.9
20240223072748 41 157 9.0 20.0 0.01 0.13 0.01 88 988.6
20240223072334 41 158 7.0 19.0 0.01 0.13 0.01 88 988.6
20240223071256 42 146 9.0 22.0 0.00 0.13 0.00 87 988.6
20240223065750 42 185 9.0 23.0 0.00 0.13 0.00 87 988.6
20240223065252 41 185 8.0 19.0 0.00 0.13 0.00 87 988.5
20240223063744 41 215 8.0 17.0 0.00 0.13 0.00 87 988.5
20240223062748 41 171 8.0 20.0 0.00 0.13 0.00 86 988.6
20240223061746 41 238 8.0 22.0 0.00 0.13 0.00 87 988.6
20240223060747 41 241 8.0 22.0 0.00 0.13 0.00 87 988.5
20240223055745 41 224 9.0 21.0 0.00 0.13 0.00 87 988.6
20240223054744 41 200 7.0 17.0 0.00 0.13 0.00 87 988.6
20240223053741 41 204 8.0 16.0 0.00 0.13 0.00 87 988.7
20240223052741 41 190 9.0 21.0 0.00 0.13 0.00 87 989.0
20240223051743 41 202 8.0 17.0 0.00 0.13 0.00 87 989.2
20240223050856 41 198 8.0 17.0 0.00 0.13 0.00 87 989.3
20240223045742 41 133 7.0 17.0 0.00 0.13 0.00 87 989.1
20240223044739 41 157 8.0 19.0 0.00 0.13 0.00 87 989.1
20240223044242 41 137 8.0 18.0 0.00 0.13 0.00 87 989.2
20240223042744 41 208 8.0 22.0 0.00 0.13 0.00 88 989.1
20240223041741 41 154 7.0 18.0 0.00 0.13 0.00 88 989.2
20240223040738 41 199 7.0 21.0 0.00 0.13 0.00 89 989.2
20240223035745 41 190 6.0 11.0 0.00 0.13 0.00 88 989.4
20240223035736 41 169 6.0 13.0 0.00 0.13 0.00 88 989.4
20240223033738 41 189 6.0 12.0 0.00 0.13 0.00 88 989.6
20240223033253 41 192 6.0 14.0 0.00 0.13 0.00 88 989.6